createdAt,value
2022-08-02T00:00:17.164Z,62.80
2022-08-02T00:02:45.509Z,63.00
2022-08-02T00:05:13.627Z,63.20
2022-08-02T00:07:41.521Z,63.30
2022-08-02T00:10:10.648Z,63.40
2022-08-02T00:12:38.433Z,63.60
2022-08-02T00:15:07.890Z,63.70
2022-08-02T00:17:34.775Z,63.90
2022-08-02T00:20:02.299Z,64.00
2022-08-02T00:22:29.207Z,64.10
2022-08-02T00:24:56.156Z,64.30
2022-08-02T00:27:23.086Z,64.50
2022-08-02T00:29:53.108Z,64.60
2022-08-02T00:32:23.740Z,64.80
2022-08-02T00:34:51.172Z,64.80
2022-08-02T00:37:18.157Z,65.00
2022-08-02T00:39:45.024Z,65.10
2022-08-02T00:42:15.486Z,65.30
2022-08-02T00:44:42.767Z,65.50
2022-08-02T00:47:09.977Z,66.40
2022-08-02T00:49:37.763Z,65.90
2022-08-02T00:52:05.384Z,66.20
2022-08-02T00:54:32.284Z,66.30
2022-08-02T00:56:59.386Z,66.50
2022-08-02T00:59:26.294Z,66.70
2022-08-02T01:01:56.261Z,66.90
2022-08-02T01:04:31.215Z,67.00
2022-08-02T01:06:59.730Z,67.10
2022-08-02T01:09:26.810Z,67.30
2022-08-02T01:11:54.121Z,67.40
2022-08-02T01:14:24.518Z,67.40
2022-08-02T01:17:06.735Z,67.60
2022-08-02T01:20:10.711Z,67.80
2022-08-02T01:23:05.112Z,67.90
2022-08-02T01:26:03.281Z,68.20
2022-08-02T01:28:38.855Z,68.20
2022-08-02T01:31:25.687Z,68.50
2022-08-02T01:34:01.342Z,68.50
2022-08-02T01:36:34.955Z,68.70
2022-08-02T01:39:05.305Z,68.80
2022-08-02T01:41:33.476Z,68.90
2022-08-02T01:44:01.627Z,69.00
2022-08-02T01:46:30.357Z,69.70
2022-08-02T01:48:59.541Z,69.30
2022-08-02T01:51:49.153Z,69.30
2022-08-02T01:54:19.630Z,69.60
2022-08-02T01:56:50.037Z,69.60
2022-08-02T01:59:21.140Z,69.70
2022-08-02T02:01:51.020Z,69.90
2022-08-02T02:04:19.697Z,70.00
2022-08-02T02:06:47.721Z,70.00
2022-08-02T02:09:17.078Z,70.20
2022-08-02T02:12:13.875Z,70.30
2022-08-02T02:14:37.524Z,70.40
2022-08-02T02:17:05.771Z,70.50
2022-08-02T02:19:37.028Z,70.70
2022-08-02T02:22:04.993Z,70.80
2022-08-02T02:24:33.973Z,70.90
2022-08-02T02:27:03.595Z,71.00
2022-08-02T02:29:34.430Z,71.00
2022-08-02T02:32:05.792Z,71.10
2022-08-02T02:34:35.856Z,71.20
2022-08-02T02:37:06.071Z,71.30
2022-08-02T02:39:34.709Z,71.20
2022-08-02T02:42:07.630Z,71.30
2022-08-02T02:44:36.456Z,71.40
2022-08-02T02:47:03.915Z,71.60
2022-08-02T02:49:36.849Z,72.20
2022-08-02T02:52:06.250Z,71.70
2022-08-02T02:54:35.393Z,71.80
2022-08-02T02:57:05.446Z,72.40
2022-08-02T02:59:42.961Z,71.80
2022-08-02T03:02:21.285Z,71.80
2022-08-02T03:04:57.137Z,71.80
2022-08-02T03:07:26.194Z,71.80
2022-08-02T03:09:53.902Z,71.80
2022-08-02T03:12:27.094Z,71.80
2022-08-02T03:15:04.893Z,71.80
2022-08-02T03:17:44.851Z,71.80
2022-08-02T03:20:17.087Z,71.90
2022-08-02T03:22:45.268Z,71.90
2022-08-02T03:25:13.272Z,72.00
2022-08-02T03:27:40.927Z,72.10
2022-08-02T03:30:10.266Z,72.10
2022-08-02T03:32:38.994Z,72.20
2022-08-02T03:35:09.253Z,72.30
2022-08-02T03:37:37.668Z,72.40
2022-08-02T03:40:08.377Z,72.50
2022-08-02T03:42:35.599Z,72.50
2022-08-02T03:45:08.925Z,72.50
2022-08-02T03:47:38.173Z,72.50
2022-08-02T03:50:07.713Z,72.60
2022-08-02T03:52:34.712Z,72.70
2022-08-02T03:55:01.769Z,72.60
2022-08-02T03:57:28.923Z,72.60
2022-08-02T03:59:55.878Z,72.50
2022-08-02T04:02:23.217Z,72.50
2022-08-02T04:04:50.159Z,72.40
2022-08-02T04:08:02.662Z,72.40
2022-08-02T04:10:04.548Z,72.50
2022-08-02T04:12:31.580Z,72.60
2022-08-02T04:14:59.594Z,72.50
2022-08-02T04:17:30.105Z,73.10
2022-08-02T04:20:06.465Z,72.50
2022-08-02T04:22:44.532Z,72.50
2022-08-02T04:25:17.547Z,72.50
2022-08-02T04:27:49.938Z,72.40
2022-08-02T04:30:19.002Z,72.40
2022-08-02T04:32:46.934Z,72.40
2022-08-02T04:35:19.537Z,72.40
2022-08-02T04:38:09.563Z,72.40
2022-08-02T04:40:37.044Z,72.40
2022-08-02T04:43:04.182Z,72.50
2022-08-02T04:45:31.467Z,72.60
2022-08-02T04:48:06.363Z,72.60
2022-08-02T04:50:34.381Z,72.70
2022-08-02T04:53:01.790Z,72.70
2022-08-02T04:55:29.891Z,72.80
2022-08-02T04:57:57.775Z,72.80
2022-08-02T05:00:27.524Z,72.80
2022-08-02T05:02:59.533Z,72.80
2022-08-02T05:05:27.030Z,72.60
2022-08-02T05:07:53.890Z,72.60
2022-08-02T05:10:23.609Z,72.60
2022-08-02T05:12:50.894Z,72.60
2022-08-02T05:15:18.635Z,72.50
2022-08-02T05:17:48.926Z,72.60
2022-08-02T05:20:17.877Z,72.70
2022-08-02T05:22:45.335Z,72.80
2022-08-02T05:25:12.808Z,72.80
2022-08-02T05:27:39.812Z,72.80
2022-08-02T05:30:07.740Z,72.90
2022-08-02T05:32:34.994Z,72.90
2022-08-02T05:35:02.597Z,72.90
2022-08-02T05:37:32.269Z,73.00
2022-08-02T05:40:01.073Z,73.00
2022-08-02T05:42:32.016Z,72.90
2022-08-02T05:44:59.099Z,72.80
2022-08-02T05:47:26.121Z,72.70
2022-08-02T05:49:53.386Z,72.70
2022-08-02T05:52:21.332Z,72.50
2022-08-02T05:55:06.390Z,72.50
2022-08-02T05:57:51.764Z,72.40
2022-08-02T06:00:20.086Z,72.20
2022-08-02T06:03:07.528Z,72.10
2022-08-02T06:05:40.195Z,71.90
2022-08-02T06:08:10.829Z,71.70
2022-08-02T06:10:40.374Z,71.50
2022-08-02T06:13:16.333Z,71.30
2022-08-02T06:15:52.808Z,71.20
2022-08-02T06:18:28.574Z,71.00
2022-08-02T06:22:42.131Z,70.90
2022-08-02T06:23:58.556Z,70.80
2022-08-02T06:26:27.792Z,70.60
2022-08-02T06:28:56.447Z,70.40
2022-08-02T06:31:23.481Z,70.30
2022-08-02T06:33:50.451Z,70.10
2022-08-02T06:36:31.886Z,70.00
2022-08-02T06:39:04.493Z,69.80
2022-08-02T06:41:39.413Z,69.90
2022-08-02T06:47:12.011Z,69.80
2022-08-02T06:49:52.243Z,69.70
2022-08-02T06:52:28.281Z,69.80
2022-08-02T06:54:57.952Z,69.80
2022-08-02T06:57:25.123Z,69.70
2022-08-02T06:59:52.234Z,69.70
2022-08-02T07:02:19.263Z,69.60
2022-08-02T07:04:46.331Z,69.50
2022-08-02T07:07:13.346Z,69.40
2022-08-02T07:09:56.862Z,69.20
2022-08-02T07:12:28.393Z,69.00
2022-08-02T07:14:55.390Z,69.00
2022-08-02T07:17:22.340Z,68.80
2022-08-02T07:19:49.326Z,68.70
2022-08-02T07:22:18.794Z,68.70
2022-08-02T07:24:45.763Z,68.60
2022-08-02T07:27:13.247Z,68.50
2022-08-02T07:29:46.502Z,68.30
2022-08-02T07:32:19.578Z,68.30
2022-08-02T07:34:50.959Z,68.20
2022-08-02T07:37:35.822Z,68.20
2022-08-02T07:40:13.802Z,68.20
2022-08-02T07:42:43.732Z,68.10
2022-08-02T07:45:12.549Z,67.90
2022-08-02T07:47:44.450Z,67.80
2022-08-02T07:50:12.648Z,67.80
2022-08-02T07:52:40.543Z,67.80
2022-08-02T07:55:08.581Z,67.70
2022-08-02T07:57:36.857Z,67.60
2022-08-02T08:00:06.340Z,67.60
2022-08-02T08:02:39.104Z,67.40
2022-08-02T08:05:07.040Z,67.40
2022-08-02T08:07:34.845Z,67.20
2022-08-02T08:10:02.331Z,67.10
2022-08-02T08:12:29.436Z,67.00
2022-08-02T08:14:56.398Z,66.90
2022-08-02T08:17:24.462Z,66.70
2022-08-02T08:19:52.790Z,66.60
2022-08-02T08:22:21.004Z,66.40
2022-08-02T08:24:48.823Z,66.30
2022-08-02T08:27:16.827Z,66.30
2022-08-02T08:29:44.636Z,66.00
2022-08-02T08:32:16.350Z,65.60
2022-08-02T08:34:48.744Z,65.30
2022-08-02T08:37:18.330Z,65.00
2022-08-02T08:39:57.888Z,64.80
2022-08-02T08:42:30.893Z,64.60
2022-08-02T08:44:58.667Z,64.40
2022-08-02T08:47:40.518Z,64.30
2022-08-02T08:50:21.324Z,64.00
2022-08-02T08:53:01.924Z,64.00
2022-08-02T08:55:30.426Z,64.00
2022-08-02T08:58:00.321Z,64.00
2022-08-02T09:00:28.369Z,63.90
2022-08-02T09:02:55.629Z,63.60
2022-08-02T09:05:23.125Z,63.30
2022-08-02T09:07:52.807Z,63.20
2022-08-02T09:10:36.392Z,62.50
2022-08-02T09:13:37.927Z,62.30
2022-08-02T09:16:10.977Z,62.20
2022-08-02T09:18:46.397Z,62.20
2022-08-02T09:21:15.323Z,62.10
2022-08-02T09:23:47.900Z,62.00
2022-08-02T09:26:20.133Z,61.80
2022-08-02T09:28:50.275Z,61.50
2022-08-02T09:31:22.595Z,61.30
2022-08-02T09:33:57.807Z,60.40
2022-08-02T09:36:25.991Z,60.30
2022-08-02T09:39:13.587Z,60.00
2022-08-02T09:41:42.517Z,59.70
2022-08-02T09:44:15.952Z,59.30
2022-08-02T09:46:46.011Z,57.80
2022-08-02T09:49:18.448Z,57.40
2022-08-02T09:51:54.269Z,57.00
2022-08-02T09:54:28.997Z,57.30
2022-08-02T09:57:01.721Z,57.80
2022-08-02T09:59:29.718Z,56.60
2022-08-02T10:02:02.593Z,56.60
2022-08-02T10:04:34.120Z,56.60
2022-08-02T10:07:19.657Z,55.70
2022-08-02T10:09:49.151Z,55.60
2022-08-02T10:12:16.222Z,55.60
2022-08-02T10:14:43.972Z,56.00
2022-08-02T10:17:11.402Z,55.20
2022-08-02T10:19:59.623Z,55.20
2022-08-02T10:22:27.810Z,54.60
2022-08-02T10:24:55.044Z,54.70
2022-08-02T10:27:25.374Z,54.40
2022-08-02T10:29:57.668Z,54.40
2022-08-02T10:32:30.122Z,54.50
2022-08-02T10:35:26.959Z,54.40
2022-08-02T10:38:03.468Z,53.40
2022-08-02T10:40:48.239Z,53.10
2022-08-02T10:43:36.039Z,53.20
2022-08-02T10:46:29.617Z,53.30
2022-08-02T10:49:36.269Z,53.60
2022-08-02T10:52:00.960Z,53.80
2022-08-02T10:54:37.286Z,53.40
2022-08-02T10:57:48.692Z,53.70
2022-08-02T11:00:24.707Z,53.50
2022-08-02T11:02:53.851Z,53.00
2022-08-02T11:05:42.946Z,53.10
2022-08-02T11:08:29.448Z,52.90
2022-08-02T11:11:01.233Z,52.50
2022-08-02T11:13:30.098Z,52.50
2022-08-02T11:16:01.465Z,52.10
2022-08-02T11:18:50.269Z,51.60
2022-08-02T11:21:28.910Z,50.90
2022-08-02T11:24:32.177Z,50.80
2022-08-02T11:27:01.390Z,49.30
2022-08-02T11:29:40.316Z,48.80
2022-08-02T11:32:30.507Z,48.80
2022-08-02T11:34:59.293Z,48.50
2022-08-02T11:37:37.987Z,48.90
2022-08-02T11:40:11.615Z,48.80
2022-08-02T11:42:53.841Z,48.80
2022-08-02T11:45:29.433Z,48.10
2022-08-02T11:47:56.749Z,47.90
2022-08-02T11:50:29.776Z,47.60
2022-08-02T11:52:57.833Z,47.20
2022-08-02T11:55:29.658Z,47.10
2022-08-02T11:58:03.511Z,46.60
2022-08-02T12:00:31.949Z,46.70
2022-08-02T12:02:59.156Z,46.80
2022-08-02T12:05:51.156Z,47.00
2022-08-02T12:08:13.968Z,47.00
2022-08-02T12:10:51.378Z,46.80
2022-08-02T12:13:20.556Z,46.50
2022-08-02T12:15:47.711Z,46.20
2022-08-02T12:18:36.970Z,45.80
2022-08-02T12:21:20.112Z,45.70
2022-08-02T12:23:59.375Z,45.20
2022-08-02T12:26:29.281Z,45.10
2022-08-02T12:28:57.959Z,44.20
2022-08-02T12:31:55.827Z,42.70
2022-08-02T12:34:31.863Z,42.70
2022-08-02T12:37:06.324Z,42.00
2022-08-02T12:39:46.140Z,42.20
2022-08-02T12:42:15.709Z,41.50
2022-08-02T12:44:55.172Z,41.20
2022-08-02T12:47:22.205Z,41.20
2022-08-02T12:50:22.004Z,41.00
2022-08-02T12:53:22.939Z,40.80
2022-08-02T12:56:02.159Z,40.80
2022-08-02T12:58:31.335Z,40.50
2022-08-02T13:01:02.218Z,40.40
2022-08-02T13:04:09.362Z,40.40
2022-08-02T13:06:42.955Z,40.10
2022-08-02T13:09:16.085Z,39.90
2022-08-02T13:11:44.113Z,39.20
2022-08-02T13:14:16.078Z,38.20
2022-08-02T13:16:44.663Z,38.30
2022-08-02T13:19:13.318Z,38.90
2022-08-02T13:22:02.556Z,39.30
2022-08-02T13:24:39.434Z,39.60
2022-08-02T13:27:09.502Z,39.10
2022-08-02T13:29:38.251Z,39.00
2022-08-02T13:32:05.767Z,39.10
2022-08-02T13:34:32.835Z,39.70
2022-08-02T13:37:00.060Z,38.30
2022-08-02T13:39:27.144Z,37.80
2022-08-02T13:41:55.148Z,37.90
2022-08-02T13:44:22.708Z,37.90
2022-08-02T13:46:49.591Z,37.30
2022-08-02T13:49:19.888Z,37.00
2022-08-02T13:51:51.155Z,37.30
2022-08-02T13:54:18.055Z,37.30
2022-08-02T13:56:45.360Z,36.50
2022-08-02T13:59:55.197Z,35.40
2022-08-02T14:02:00.167Z,34.90
2022-08-02T14:04:27.825Z,35.10
2022-08-02T14:06:54.719Z,35.00
2022-08-02T14:09:26.513Z,34.70
2022-08-02T14:11:53.681Z,34.40
2022-08-02T14:14:20.860Z,34.20
2022-08-02T14:16:47.921Z,34.30
2022-08-02T14:19:16.531Z,34.40
2022-08-02T14:21:46.101Z,34.20
2022-08-02T14:24:16.396Z,34.00
2022-08-02T14:26:43.771Z,32.80
2022-08-02T14:29:10.816Z,33.00
2022-08-02T14:31:43.274Z,32.60
2022-08-02T14:34:14.535Z,32.80
2022-08-02T14:36:44.581Z,32.50
2022-08-02T14:39:12.534Z,32.10
2022-08-02T14:41:58.069Z,32.30
2022-08-02T14:44:25.829Z,32.50
2022-08-02T14:46:53.164Z,32.90
2022-08-02T14:49:25.135Z,32.60
2022-08-02T14:51:54.797Z,32.60
2022-08-02T14:54:27.756Z,33.10
2022-08-02T14:56:56.352Z,33.40
2022-08-02T14:59:23.567Z,34.20
2022-08-02T15:01:50.503Z,34.70
2022-08-02T15:04:17.518Z,35.70
2022-08-02T15:06:44.487Z,35.00
2022-08-02T15:09:11.550Z,35.20
2022-08-02T15:11:48.240Z,34.60
2022-08-02T15:14:25.514Z,34.30
2022-08-02T15:16:58.823Z,34.10
2022-08-02T15:19:56.156Z,33.90
2022-08-02T15:22:22.877Z,33.60
2022-08-02T15:24:51.442Z,33.40
2022-08-02T15:27:18.655Z,33.00
2022-08-02T15:29:46.880Z,33.40
2022-08-02T15:32:17.340Z,33.20
2022-08-02T15:34:44.921Z,32.80
2022-08-02T15:37:16.213Z,32.70
2022-08-02T15:39:43.359Z,32.10
2022-08-02T15:42:13.497Z,32.60
2022-08-02T15:44:40.753Z,32.80
2022-08-02T15:47:08.233Z,32.80
2022-08-02T15:49:39.330Z,32.70
2022-08-02T15:52:08.243Z,32.60
2022-08-02T15:54:36.431Z,32.40
2022-08-02T15:57:03.465Z,32.40
2022-08-02T15:59:32.854Z,32.10
2022-08-02T16:01:59.962Z,32.10
2022-08-02T16:04:31.013Z,31.90
2022-08-02T16:07:01.646Z,32.70
2022-08-02T16:09:28.850Z,32.10
2022-08-02T16:11:55.822Z,32.00
2022-08-02T16:14:22.719Z,31.90
2022-08-02T16:16:49.683Z,32.20
2022-08-02T16:19:30.706Z,32.30
2022-08-02T16:22:03.578Z,32.30
2022-08-02T16:24:33.680Z,32.30
2022-08-02T16:27:00.695Z,32.10
2022-08-02T16:29:27.689Z,32.10
2022-08-02T16:32:00.708Z,32.00
2022-08-02T16:34:36.292Z,32.10
2022-08-02T16:37:15.246Z,32.00
2022-08-02T16:39:42.552Z,31.80
2022-08-02T16:42:09.450Z,32.10
2022-08-02T16:44:36.406Z,32.10
2022-08-02T16:47:03.460Z,32.20
2022-08-02T16:50:05.484Z,32.00
2022-08-02T16:52:20.987Z,31.90
2022-08-02T16:54:49.586Z,32.30
2022-08-02T16:57:20.880Z,32.30
2022-08-02T16:59:57.963Z,32.50
2022-08-02T17:02:26.453Z,32.30
2022-08-02T17:04:53.473Z,32.30
2022-08-02T17:08:10.386Z,32.60
2022-08-02T17:10:09.307Z,32.80
2022-08-02T17:12:37.442Z,33.00
2022-08-02T17:16:01.694Z,33.30
2022-08-02T17:17:54.956Z,33.30
2022-08-02T17:20:21.980Z,33.30
2022-08-02T17:22:51.649Z,33.30
2022-08-02T17:25:19.613Z,33.40
2022-08-02T17:27:55.720Z,33.40
2022-08-02T17:30:26.467Z,33.30
2022-08-02T17:33:00.450Z,33.20
2022-08-02T17:35:43.359Z,33.60
2022-08-02T17:38:26.084Z,33.80
2022-08-02T17:40:55.241Z,34.10
2022-08-02T17:43:22.285Z,34.30
2022-08-02T17:46:01.923Z,34.50
2022-08-02T17:48:55.037Z,34.80
2022-08-02T17:51:33.177Z,35.00
2022-08-02T17:54:10.090Z,34.90
2022-08-02T17:56:37.073Z,35.00
2022-08-02T17:59:20.933Z,35.20
2022-08-02T18:02:06.611Z,35.30
2022-08-02T18:04:35.650Z,36.20
2022-08-02T18:07:04.603Z,35.90
2022-08-02T18:09:37.113Z,36.40
2022-08-02T18:12:04.978Z,37.10
2022-08-02T18:14:31.943Z,38.30
2022-08-02T18:16:58.991Z,39.30
2022-08-02T18:19:42.715Z,40.20
2022-08-02T18:22:13.134Z,40.80
2022-08-02T18:24:40.698Z,41.40
2022-08-02T18:27:07.744Z,42.30
2022-08-02T18:29:38.697Z,43.00
2022-08-02T18:32:06.291Z,43.60
2022-08-02T18:34:47.606Z,44.00
2022-08-02T18:37:15.102Z,44.50
2022-08-02T18:39:51.123Z,45.00
2022-08-02T18:42:20.668Z,45.40
2022-08-02T18:44:47.600Z,45.70
2022-08-02T18:47:14.468Z,46.20
2022-08-02T18:49:46.587Z,46.40
2022-08-02T18:52:31.164Z,46.50
2022-08-02T18:54:58.712Z,46.80
2022-08-02T18:58:17.565Z,47.20
2022-08-02T19:00:13.678Z,47.40
2022-08-02T19:02:40.598Z,47.70
2022-08-02T19:05:07.904Z,47.90
2022-08-02T19:07:50.318Z,48.20
2022-08-02T19:10:21.329Z,48.50
2022-08-02T19:12:51.539Z,48.80
2022-08-02T19:15:18.748Z,49.30
2022-08-02T19:17:55.166Z,49.60
2022-08-02T19:20:25.693Z,49.90
2022-08-02T19:22:53.842Z,50.20
2022-08-02T19:25:27.891Z,50.60
2022-08-02T19:27:55.543Z,50.90
2022-08-02T19:30:25.820Z,51.20
2022-08-02T19:33:54.496Z,51.50
2022-08-02T19:36:03.853Z,51.90
2022-08-02T19:38:31.483Z,52.30
2022-08-02T19:40:59.575Z,52.50
2022-08-02T19:44:25.375Z,52.80
2022-08-02T19:46:23.616Z,53.10
2022-08-02T19:48:51.932Z,53.50
2022-08-02T19:51:49.334Z,53.70
2022-08-02T19:54:10.868Z,54.10
2022-08-02T19:56:37.928Z,54.40
2022-08-02T19:59:12.895Z,54.60
2022-08-02T20:01:46.370Z,54.80
2022-08-02T20:04:15.891Z,55.10
2022-08-02T20:06:50.855Z,55.30
2022-08-02T20:09:21.288Z,55.50
2022-08-02T20:11:54.711Z,55.60
2022-08-02T20:14:26.840Z,55.70
2022-08-02T20:16:57.247Z,55.80
2022-08-02T20:19:24.949Z,56.00
2022-08-02T20:24:39.501Z,56.40
2022-08-02T20:27:06.555Z,56.40
2022-08-02T20:29:42.867Z,56.70
2022-08-02T20:32:14.588Z,56.80
2022-08-02T20:34:42.011Z,56.90
2022-08-02T20:37:59.088Z,57.30
2022-08-02T20:39:55.768Z,57.60
2022-08-02T20:42:24.539Z,57.90
2022-08-02T20:44:55.643Z,58.00
2022-08-02T20:47:28.028Z,58.20
2022-08-02T20:50:30.389Z,58.30
2022-08-02T20:53:01.458Z,58.40
2022-08-02T20:55:30.862Z,58.80
2022-08-02T20:58:04.415Z,58.80
2022-08-02T21:00:32.114Z,59.00
2022-08-02T21:03:00.651Z,59.40
2022-08-02T21:05:54.673Z,59.50
2022-08-02T21:08:15.523Z,59.60
2022-08-02T21:10:50.277Z,59.80
2022-08-02T21:13:24.377Z,59.90
2022-08-02T21:15:56.804Z,60.10
2022-08-02T21:18:33.417Z,60.20
2022-08-02T21:21:08.809Z,60.40
2022-08-02T21:23:36.910Z,60.50
2022-08-02T21:26:06.601Z,60.80
2022-08-02T21:28:43.483Z,60.80
2022-08-02T21:31:14.917Z,61.10
2022-08-02T21:33:56.692Z,61.10
2022-08-02T21:36:32.746Z,61.40
2022-08-02T21:39:05.248Z,61.60
2022-08-02T21:41:39.135Z,61.80
2022-08-02T21:44:23.548Z,61.70
2022-08-02T21:46:53.022Z,62.00
2022-08-02T21:49:40.910Z,62.10
2022-08-02T21:52:09.907Z,62.40
2022-08-02T21:54:39.816Z,62.50
2022-08-02T21:57:07.864Z,62.80
2022-08-02T21:59:45.445Z,62.90
2022-08-02T22:02:13.605Z,63.10
2022-08-02T22:04:41.597Z,63.30
2022-08-02T22:07:17.074Z,63.50
2022-08-02T22:09:46.008Z,63.70
2022-08-02T22:12:19.174Z,63.80
2022-08-02T22:14:54.171Z,64.10
2022-08-02T22:17:50.863Z,64.30
2022-08-02T22:20:19.901Z,64.40
2022-08-02T22:22:52.622Z,64.60
2022-08-02T22:25:27.340Z,64.80
2022-08-02T22:28:38.160Z,65.00
2022-08-02T22:30:58.135Z,65.10
2022-08-02T22:33:47.010Z,65.10
2022-08-02T22:36:28.228Z,65.40
2022-08-02T22:38:55.675Z,65.50
2022-08-02T22:41:22.900Z,65.70
2022-08-02T22:43:52.260Z,65.90
2022-08-02T22:46:20.482Z,66.00
2022-08-02T22:48:53.576Z,66.10
2022-08-02T22:51:21.592Z,66.30
2022-08-02T22:53:48.646Z,66.50
2022-08-02T22:56:15.914Z,66.70
2022-08-02T22:59:05.213Z,56.20
2022-08-02T23:01:31.193Z,67.00
2022-08-02T23:03:58.106Z,67.20
2022-08-02T23:06:25.026Z,67.30
2022-08-02T23:08:51.913Z,67.50
2022-08-02T23:11:23.229Z,67.60
2022-08-02T23:13:50.251Z,68.40
2022-08-02T23:16:39.578Z,67.90
2022-08-02T23:19:25.088Z,68.00
2022-08-02T23:22:02.119Z,68.30
2022-08-02T23:24:32.960Z,68.40
2022-08-02T23:27:00.101Z,68.50
2022-08-02T23:29:27.028Z,68.60
2022-08-02T23:31:53.993Z,68.80
2022-08-02T23:34:21.851Z,68.90
2022-08-02T23:36:48.765Z,69.10
2022-08-02T23:39:15.746Z,69.20
2022-08-02T23:41:42.782Z,69.30
2022-08-02T23:44:14.471Z,69.50
2022-08-02T23:46:43.099Z,69.60
2022-08-02T23:49:11.126Z,69.60
2022-08-02T23:51:38.129Z,69.80
2022-08-02T23:54:05.106Z,69.80
2022-08-02T23:56:32.023Z,70.00
2022-08-02T23:58:58.997Z,70.10
